METAR Data
IDs: Format: Raw Decoded Include TAF

Data at: 0313 UTC 25 Feb 2021

ETNT 250220Z AUTO 19006KT 9000 // ////// 10/06 Q1023 ///